sensor_id;sensor_type;location;lat;lon;timestamp;P1;durP1;ratioP1;P2;durP2;ratioP2
6878;SDS011;3478;51.462;7.338;2024-03-25T00:03:04;9.40;;;3.30;;
6878;SDS011;3478;51.462;7.338;2024-03-25T00:08:07;7.07;;;3.13;;
6878;SDS011;3478;51.462;7.338;2024-03-25T00:13:09;13.50;;;3.63;;
6878;SDS011;3478;51.462;7.338;2024-03-25T00:18:11;11.77;;;4.47;;
6878;SDS011;3478;51.462;7.338;2024-03-25T00:23:15;14.50;;;5.13;;
6878;SDS011;3478;51.462;7.338;2024-03-25T00:28:16;17.03;;;4.50;;
6878;SDS011;3478;51.462;7.338;2024-03-25T00:33:19;15.90;;;6.00;;
6878;SDS011;3478;51.462;7.338;2024-03-25T00:38:22;12.37;;;5.90;;
6878;SDS011;3478;51.462;7.338;2024-03-25T00:43:24;21.77;;;6.60;;
6878;SDS011;3478;51.462;7.338;2024-03-25T00:48:26;19.87;;;7.27;;
6878;SDS011;3478;51.462;7.338;2024-03-25T00:53:29;23.70;;;8.43;;
6878;SDS011;3478;51.462;7.338;2024-03-25T00:58:31;25.70;;;9.87;;
6878;SDS011;3478;51.462;7.338;2024-03-25T01:03:33;22.87;;;9.27;;
6878;SDS011;3478;51.462;7.338;2024-03-25T01:08:36;28.47;;;11.47;;
6878;SDS011;3478;51.462;7.338;2024-03-25T01:13:38;35.47;;;11.90;;
6878;SDS011;3478;51.462;7.338;2024-03-25T01:18:41;24.93;;;12.10;;
6878;SDS011;3478;51.462;7.338;2024-03-25T01:23:44;36.57;;;11.73;;
6878;SDS011;3478;51.462;7.338;2024-03-25T01:28:46;28.07;;;11.70;;
6878;SDS011;3478;51.462;7.338;2024-03-25T01:33:48;25.30;;;13.30;;
6878;SDS011;3478;51.462;7.338;2024-03-25T01:38:52;31.47;;;13.73;;
6878;SDS011;3478;51.462;7.338;2024-03-25T01:43:54;32.90;;;14.30;;
6878;SDS011;3478;51.462;7.338;2024-03-25T01:48:56;37.97;;;14.70;;
6878;SDS011;3478;51.462;7.338;2024-03-25T01:54:00;33.43;;;13.60;;
6878;SDS011;3478;51.462;7.338;2024-03-25T01:59:03;29.67;;;13.00;;
6878;SDS011;3478;51.462;7.338;2024-03-25T02:04:05;35.80;;;11.50;;
6878;SDS011;3478;51.462;7.338;2024-03-25T02:09:10;20.03;;;9.30;;
6878;SDS011;3478;51.462;7.338;2024-03-25T02:14:14;22.27;;;8.50;;
6878;SDS011;3478;51.462;7.338;2024-03-25T02:19:16;19.67;;;8.77;;
6878;SDS011;3478;51.462;7.338;2024-03-25T02:24:20;21.63;;;8.33;;
6878;SDS011;3478;51.462;7.338;2024-03-25T02:29:33;24.17;;;8.33;;
6878;SDS011;3478;51.462;7.338;2024-03-25T02:34:35;31.10;;;7.33;;
6878;SDS011;3478;51.462;7.338;2024-03-25T02:39:38;18.40;;;8.20;;
6878;SDS011;3478;51.462;7.338;2024-03-25T02:44:41;24.33;;;5.73;;
6878;SDS011;3478;51.462;7.338;2024-03-25T02:49:44;29.87;;;4.87;;
6878;SDS011;3478;51.462;7.338;2024-03-25T02:54:46;16.20;;;4.43;;
6878;SDS011;3478;51.462;7.338;2024-03-25T02:59:49;18.70;;;4.63;;
6878;SDS011;3478;51.462;7.338;2024-03-25T03:04:51;16.10;;;5.40;;
6878;SDS011;3478;51.462;7.338;2024-03-25T03:09:53;15.57;;;5.00;;
6878;SDS011;3478;51.462;7.338;2024-03-25T03:14:57;18.20;;;4.70;;
6878;SDS011;3478;51.462;7.338;2024-03-25T03:19:58;12.60;;;4.50;;
6878;SDS011;3478;51.462;7.338;2024-03-25T03:25:00;14.07;;;4.93;;
6878;SDS011;3478;51.462;7.338;2024-03-25T03:30:05;15.20;;;6.43;;
6878;SDS011;3478;51.462;7.338;2024-03-25T03:35:08;36.07;;;6.30;;
6878;SDS011;3478;51.462;7.338;2024-03-25T03:40:10;13.40;;;6.13;;
6878;SDS011;3478;51.462;7.338;2024-03-25T03:45:14;15.80;;;6.60;;
6878;SDS011;3478;51.462;7.338;2024-03-25T03:50:15;20.93;;;7.87;;
6878;SDS011;3478;51.462;7.338;2024-03-25T03:55:17;13.77;;;6.87;;
6878;SDS011;3478;51.462;7.338;2024-03-25T04:00:21;21.67;;;6.83;;
6878;SDS011;3478;51.462;7.338;2024-03-25T04:05:22;18.80;;;8.10;;
6878;SDS011;3478;51.462;7.338;2024-03-25T04:10:26;17.33;;;8.03;;
6878;SDS011;3478;51.462;7.338;2024-03-25T04:15:30;12.53;;;7.33;;
6878;SDS011;3478;51.462;7.338;2024-03-25T04:20:37;22.93;;;8.23;;
6878;SDS011;3478;51.462;7.338;2024-03-25T04:25:39;18.83;;;7.43;;
6878;SDS011;3478;51.462;7.338;2024-03-25T04:30:43;19.83;;;8.30;;
6878;SDS011;3478;51.462;7.338;2024-03-25T04:35:45;14.93;;;7.80;;
6878;SDS011;3478;51.462;7.338;2024-03-25T04:40:47;17.47;;;7.67;;
6878;SDS011;3478;51.462;7.338;2024-03-25T04:45:49;22.37;;;8.17;;
6878;SDS011;3478;51.462;7.338;2024-03-25T04:50:50;12.73;;;7.33;;
6878;SDS011;3478;51.462;7.338;2024-03-25T04:55:51;16.83;;;7.50;;
6878;SDS011;3478;51.462;7.338;2024-03-25T05:00:53;16.00;;;7.30;;
6878;SDS011;3478;51.462;7.338;2024-03-25T05:05:54;22.93;;;7.80;;
6878;SDS011;3478;51.462;7.338;2024-03-25T05:10:55;12.97;;;7.43;;
6878;SDS011;3478;51.462;7.338;2024-03-25T05:15:57;17.83;;;6.97;;
6878;SDS011;3478;51.462;7.338;2024-03-25T05:20:58;18.70;;;6.30;;
6878;SDS011;3478;51.462;7.338;2024-03-25T05:25:59;26.23;;;7.17;;
6878;SDS011;3478;51.462;7.338;2024-03-25T05:31:06;16.37;;;6.40;;
6878;SDS011;3478;51.462;7.338;2024-03-25T05:36:07;17.10;;;7.10;;
6878;SDS011;3478;51.462;7.338;2024-03-25T05:41:09;9.50;;;6.40;;
6878;SDS011;3478;51.462;7.338;2024-03-25T05:46:11;17.47;;;6.73;;
6878;SDS011;3478;51.462;7.338;2024-03-25T05:51:12;24.43;;;7.67;;
6878;SDS011;3478;51.462;7.338;2024-03-25T05:56:13;13.30;;;7.50;;
6878;SDS011;3478;51.462;7.338;2024-03-25T06:01:15;20.03;;;7.20;;
6878;SDS011;3478;51.462;7.338;2024-03-25T06:06:16;19.50;;;7.87;;
6878;SDS011;3478;51.462;7.338;2024-03-25T06:11:17;20.83;;;9.07;;
6878;SDS011;3478;51.462;7.338;2024-03-25T06:16:20;16.10;;;7.10;;
6878;SDS011;3478;51.462;7.338;2024-03-25T06:21:20;17.80;;;6.27;;
6878;SDS011;3478;51.462;7.338;2024-03-25T06:26:21;18.87;;;7.13;;
6878;SDS011;3478;51.462;7.338;2024-03-25T06:31:23;12.50;;;7.20;;
6878;SDS011;3478;51.462;7.338;2024-03-25T06:36:43;19.73;;;6.87;;
6878;SDS011;3478;51.462;7.338;2024-03-25T06:41:44;18.60;;;6.60;;
6878;SDS011;3478;51.462;7.338;2024-03-25T06:46:46;21.40;;;8.50;;
6878;SDS011;3478;51.462;7.338;2024-03-25T06:51:47;19.37;;;7.93;;
6878;SDS011;3478;51.462;7.338;2024-03-25T06:56:48;13.57;;;6.77;;
6878;SDS011;3478;51.462;7.338;2024-03-25T07:01:50;20.00;;;7.13;;
6878;SDS011;3478;51.462;7.338;2024-03-25T07:06:51;14.63;;;7.00;;
6878;SDS011;3478;51.462;7.338;2024-03-25T07:11:52;17.37;;;6.30;;
6878;SDS011;3478;51.462;7.338;2024-03-25T07:16:54;17.60;;;7.50;;
6878;SDS011;3478;51.462;7.338;2024-03-25T07:21:55;15.30;;;6.83;;
6878;SDS011;3478;51.462;7.338;2024-03-25T07:26:56;27.13;;;6.70;;
6878;SDS011;3478;51.462;7.338;2024-03-25T07:31:58;18.23;;;8.30;;
6878;SDS011;3478;51.462;7.338;2024-03-25T07:36:59;19.20;;;6.47;;
6878;SDS011;3478;51.462;7.338;2024-03-25T07:42:00;13.50;;;5.77;;
6878;SDS011;3478;51.462;7.338;2024-03-25T07:47:02;14.73;;;5.00;;
6878;SDS011;3478;51.462;7.338;2024-03-25T07:52:04;25.37;;;6.10;;
6878;SDS011;3478;51.462;7.338;2024-03-25T07:57:05;16.43;;;5.50;;
6878;SDS011;3478;51.462;7.338;2024-03-25T08:02:07;22.03;;;6.67;;
6878;SDS011;3478;51.462;7.338;2024-03-25T08:07:08;16.03;;;4.30;;
6878;SDS011;3478;51.462;7.338;2024-03-25T08:12:09;16.27;;;4.80;;
6878;SDS011;3478;51.462;7.338;2024-03-25T08:17:11;9.30;;;4.10;;
6878;SDS011;3478;51.462;7.338;2024-03-25T08:22:12;17.03;;;4.40;;
6878;SDS011;3478;51.462;7.338;2024-03-25T08:27:13;8.53;;;4.30;;
6878;SDS011;3478;51.462;7.338;2024-03-25T08:32:15;16.70;;;5.20;;
6878;SDS011;3478;51.462;7.338;2024-03-25T08:37:16;25.30;;;6.53;;
6878;SDS011;3478;51.462;7.338;2024-03-25T08:42:17;18.97;;;3.87;;
6878;SDS011;3478;51.462;7.338;2024-03-25T08:47:19;11.50;;;3.10;;
6878;SDS011;3478;51.462;7.338;2024-03-25T08:52:20;9.53;;;2.17;;
6878;SDS011;3478;51.462;7.338;2024-03-25T08:57:21;10.40;;;4.07;;
6878;SDS011;3478;51.462;7.338;2024-03-25T09:02:23;17.80;;;3.43;;
6878;SDS011;3478;51.462;7.338;2024-03-25T09:07:24;9.70;;;3.03;;
6878;SDS011;3478;51.462;7.338;2024-03-25T09:12:25;8.60;;;1.90;;
6878;SDS011;3478;51.462;7.338;2024-03-25T09:17:27;5.50;;;1.67;;
6878;SDS011;3478;51.462;7.338;2024-03-25T09:22:28;12.40;;;1.70;;
6878;SDS011;3478;51.462;7.338;2024-03-25T09:27:29;8.03;;;2.40;;
6878;SDS011;3478;51.462;7.338;2024-03-25T09:32:31;5.83;;;1.77;;
6878;SDS011;3478;51.462;7.338;2024-03-25T09:37:32;3.57;;;2.07;;
6878;SDS011;3478;51.462;7.338;2024-03-25T09:42:34;14.30;;;2.80;;
6878;SDS011;3478;51.462;7.338;2024-03-25T09:47:41;9.43;;;2.73;;
6878;SDS011;3478;51.462;7.338;2024-03-25T09:52:46;9.80;;;2.03;;
6878;SDS011;3478;51.462;7.338;2024-03-25T09:57:47;8.77;;;2.03;;
6878;SDS011;3478;51.462;7.338;2024-03-25T10:02:50;3.30;;;1.10;;
6878;SDS011;3478;51.462;7.338;2024-03-25T10:07:50;5.60;;;1.73;;
6878;SDS011;3478;51.462;7.338;2024-03-25T10:12:54;5.10;;;1.23;;
6878;SDS011;3478;51.462;7.338;2024-03-25T10:17:56;5.67;;;1.60;;
6878;SDS011;3478;51.462;7.338;2024-03-25T10:22:57;7.50;;;1.70;;
6878;SDS011;3478;51.462;7.338;2024-03-25T10:27:58;6.00;;;1.40;;
6878;SDS011;3478;51.462;7.338;2024-03-25T10:33:02;7.37;;;1.80;;
6878;SDS011;3478;51.462;7.338;2024-03-25T10:38:04;2.97;;;0.97;;
6878;SDS011;3478;51.462;7.338;2024-03-25T10:43:07;7.13;;;1.77;;
6878;SDS011;3478;51.462;7.338;2024-03-25T10:48:12;3.60;;;0.90;;
6878;SDS011;3478;51.462;7.338;2024-03-25T10:53:18;6.57;;;2.00;;
6878;SDS011;3478;51.462;7.338;2024-03-25T10:58:20;4.33;;;1.10;;
6878;SDS011;3478;51.462;7.338;2024-03-25T11:03:23;5.53;;;1.00;;
6878;SDS011;3478;51.462;7.338;2024-03-25T11:08:29;4.67;;;1.00;;
6878;SDS011;3478;51.462;7.338;2024-03-25T11:13:31;2.87;;;0.60;;
6878;SDS011;3478;51.462;7.338;2024-03-25T11:18:33;2.67;;;0.60;;
6878;SDS011;3478;51.462;7.338;2024-03-25T11:23:35;3.13;;;1.37;;
6878;SDS011;3478;51.462;7.338;2024-03-25T11:28:38;6.03;;;0.87;;
6878;SDS011;3478;51.462;7.338;2024-03-25T11:33:40;3.40;;;1.10;;
6878;SDS011;3478;51.462;7.338;2024-03-25T11:38:41;8.07;;;2.00;;
6878;SDS011;3478;51.462;7.338;2024-03-25T11:43:42;2.90;;;0.77;;
6878;SDS011;3478;51.462;7.338;2024-03-25T11:48:45;1.90;;;0.63;;
6878;SDS011;3478;51.462;7.338;2024-03-25T11:53:46;5.67;;;1.00;;
6878;SDS011;3478;51.462;7.338;2024-03-25T11:58:47;4.30;;;0.80;;
6878;SDS011;3478;51.462;7.338;2024-03-25T12:03:50;4.70;;;0.73;;
6878;SDS011;3478;51.462;7.338;2024-03-25T12:08:51;4.63;;;0.67;;
6878;SDS011;3478;51.462;7.338;2024-03-25T12:14:07;4.40;;;0.93;;
6878;SDS011;3478;51.462;7.338;2024-03-25T12:19:09;4.70;;;1.00;;
6878;SDS011;3478;51.462;7.338;2024-03-25T12:24:11;3.50;;;0.90;;
6878;SDS011;3478;51.462;7.338;2024-03-25T12:29:12;7.47;;;1.10;;
6878;SDS011;3478;51.462;7.338;2024-03-25T12:34:15;3.63;;;0.63;;
6878;SDS011;3478;51.462;7.338;2024-03-25T12:39:17;4.00;;;1.03;;
6878;SDS011;3478;51.462;7.338;2024-03-25T12:44:19;5.40;;;1.50;;
6878;SDS011;3478;51.462;7.338;2024-03-25T12:49:21;5.20;;;0.63;;
6878;SDS011;3478;51.462;7.338;2024-03-25T12:54:22;6.80;;;1.00;;
6878;SDS011;3478;51.462;7.338;2024-03-25T12:59:23;3.43;;;0.90;;
6878;SDS011;3478;51.462;7.338;2024-03-25T13:04:25;2.30;;;1.53;;
6878;SDS011;3478;51.462;7.338;2024-03-25T13:09:27;5.83;;;1.53;;
6878;SDS011;3478;51.462;7.338;2024-03-25T13:14:27;3.23;;;0.80;;
6878;SDS011;3478;51.462;7.338;2024-03-25T13:19:30;2.00;;;0.73;;
6878;SDS011;3478;51.462;7.338;2024-03-25T13:24:31;7.10;;;0.83;;
6878;SDS011;3478;51.462;7.338;2024-03-25T13:29:32;2.93;;;0.87;;
6878;SDS011;3478;51.462;7.338;2024-03-25T13:34:34;1.07;;;0.70;;
6878;SDS011;3478;51.462;7.338;2024-03-25T13:39:35;3.10;;;0.87;;
6878;SDS011;3478;51.462;7.338;2024-03-25T13:44:36;5.17;;;1.30;;
6878;SDS011;3478;51.462;7.338;2024-03-25T13:49:38;1.83;;;0.63;;
6878;SDS011;3478;51.462;7.338;2024-03-25T13:54:39;3.33;;;0.77;;
6878;SDS011;3478;51.462;7.338;2024-03-25T13:59:40;4.53;;;1.37;;
6878;SDS011;3478;51.462;7.338;2024-03-25T14:04:43;1.77;;;0.67;;
6878;SDS011;3478;51.462;7.338;2024-03-25T14:09:43;5.17;;;0.67;;
6878;SDS011;3478;51.462;7.338;2024-03-25T14:14:44;2.33;;;0.60;;
6878;SDS011;3478;51.462;7.338;2024-03-25T14:19:47;2.43;;;1.00;;
6878;SDS011;3478;51.462;7.338;2024-03-25T14:24:48;2.20;;;0.50;;
6878;SDS011;3478;51.462;7.338;2024-03-25T14:29:49;1.73;;;0.50;;
6878;SDS011;3478;51.462;7.338;2024-03-25T14:34:52;2.27;;;0.97;;
6878;SDS011;3478;51.462;7.338;2024-03-25T14:39:53;4.63;;;0.60;;
6878;SDS011;3478;51.462;7.338;2024-03-25T14:44:53;4.10;;;0.73;;
6878;SDS011;3478;51.462;7.338;2024-03-25T14:49:56;5.77;;;0.60;;
6878;SDS011;3478;51.462;7.338;2024-03-25T14:54:57;3.77;;;1.20;;
6878;SDS011;3478;51.462;7.338;2024-03-25T14:59:58;2.00;;;0.53;;
6878;SDS011;3478;51.462;7.338;2024-03-25T15:05:01;2.07;;;0.83;;
6878;SDS011;3478;51.462;7.338;2024-03-25T15:10:02;2.87;;;0.60;;
6878;SDS011;3478;51.462;7.338;2024-03-25T15:15:03;2.60;;;0.60;;
6878;SDS011;3478;51.462;7.338;2024-03-25T15:20:07;2.67;;;0.80;;
6878;SDS011;3478;51.462;7.338;2024-03-25T15:25:09;0.80;;;0.40;;
6878;SDS011;3478;51.462;7.338;2024-03-25T15:30:10;3.03;;;0.50;;
6878;SDS011;3478;51.462;7.338;2024-03-25T15:35:12;3.23;;;0.50;;
6878;SDS011;3478;51.462;7.338;2024-03-25T15:40:13;3.20;;;0.60;;
6878;SDS011;3478;51.462;7.338;2024-03-25T15:45:15;5.10;;;0.90;;
6878;SDS011;3478;51.462;7.338;2024-03-25T15:50:17;3.77;;;0.60;;
6878;SDS011;3478;51.462;7.338;2024-03-25T15:55:18;1.97;;;0.60;;
6878;SDS011;3478;51.462;7.338;2024-03-25T16:00:19;3.50;;;0.70;;
6878;SDS011;3478;51.462;7.338;2024-03-25T16:05:22;1.80;;;0.70;;
6878;SDS011;3478;51.462;7.338;2024-03-25T16:10:23;2.93;;;0.93;;
6878;SDS011;3478;51.462;7.338;2024-03-25T16:15:24;2.87;;;0.80;;
6878;SDS011;3478;51.462;7.338;2024-03-25T16:20:30;2.03;;;0.47;;
6878;SDS011;3478;51.462;7.338;2024-03-25T16:25:31;5.80;;;0.60;;
6878;SDS011;3478;51.462;7.338;2024-03-25T16:30:32;3.00;;;0.60;;
6878;SDS011;3478;51.462;7.338;2024-03-25T16:35:34;2.67;;;0.57;;
6878;SDS011;3478;51.462;7.338;2024-03-25T16:40:36;1.50;;;0.50;;
6878;SDS011;3478;51.462;7.338;2024-03-25T16:45:37;3.27;;;0.70;;
6878;SDS011;3478;51.462;7.338;2024-03-25T16:50:39;1.03;;;0.60;;
6878;SDS011;3478;51.462;7.338;2024-03-25T16:55:40;1.20;;;0.63;;
6878;SDS011;3478;51.462;7.338;2024-03-25T17:00:41;1.80;;;0.60;;
6878;SDS011;3478;51.462;7.338;2024-03-25T17:05:43;3.90;;;0.87;;
6878;SDS011;3478;51.462;7.338;2024-03-25T17:10:44;1.93;;;0.50;;
6878;SDS011;3478;51.462;7.338;2024-03-25T17:15:46;1.67;;;0.50;;
6878;SDS011;3478;51.462;7.338;2024-03-25T17:20:48;5.70;;;0.70;;
6878;SDS011;3478;51.462;7.338;2024-03-25T17:25:49;1.13;;;0.60;;
6878;SDS011;3478;51.462;7.338;2024-03-25T17:30:51;5.00;;;0.90;;
6878;SDS011;3478;51.462;7.338;2024-03-25T17:35:53;3.33;;;2.03;;
6878;SDS011;3478;51.462;7.338;2024-03-25T17:40:54;2.70;;;0.70;;
6878;SDS011;3478;51.462;7.338;2024-03-25T17:45:55;2.20;;;1.00;;
6878;SDS011;3478;51.462;7.338;2024-03-25T17:50:57;1.20;;;0.60;;
6878;SDS011;3478;51.462;7.338;2024-03-25T17:55:59;3.80;;;1.40;;
6878;SDS011;3478;51.462;7.338;2024-03-25T18:01:00;2.93;;;1.00;;
6878;SDS011;3478;51.462;7.338;2024-03-25T18:06:03;5.60;;;1.30;;
6878;SDS011;3478;51.462;7.338;2024-03-25T18:11:04;4.97;;;1.40;;
6878;SDS011;3478;51.462;7.338;2024-03-25T18:16:05;5.20;;;1.53;;
6878;SDS011;3478;51.462;7.338;2024-03-25T18:21:08;5.30;;;1.60;;
6878;SDS011;3478;51.462;7.338;2024-03-25T18:26:09;3.83;;;1.50;;
6878;SDS011;3478;51.462;7.338;2024-03-25T18:31:09;6.83;;;1.97;;
6878;SDS011;3478;51.462;7.338;2024-03-25T18:36:12;5.83;;;1.97;;
6878;SDS011;3478;51.462;7.338;2024-03-25T18:41:14;6.83;;;1.70;;
6878;SDS011;3478;51.462;7.338;2024-03-25T18:46:15;4.17;;;1.63;;
6878;SDS011;3478;51.462;7.338;2024-03-25T18:51:17;7.43;;;2.10;;
6878;SDS011;3478;51.462;7.338;2024-03-25T18:56:18;4.90;;;1.77;;
6878;SDS011;3478;51.462;7.338;2024-03-25T19:01:19;3.33;;;1.97;;
6878;SDS011;3478;51.462;7.338;2024-03-25T19:06:22;3.70;;;1.53;;
6878;SDS011;3478;51.462;7.338;2024-03-25T19:11:23;5.77;;;2.20;;
6878;SDS011;3478;51.462;7.338;2024-03-25T19:16:24;4.50;;;1.97;;
6878;SDS011;3478;51.462;7.338;2024-03-25T19:21:26;2.77;;;2.50;;
6878;SDS011;3478;51.462;7.338;2024-03-25T19:26:27;1.97;;;1.57;;
6878;SDS011;3478;51.462;7.338;2024-03-25T19:31:28;5.80;;;2.57;;
6878;SDS011;3478;51.462;7.338;2024-03-25T19:36:30;10.17;;;2.13;;
6878;SDS011;3478;51.462;7.338;2024-03-25T19:41:31;3.70;;;2.30;;
6878;SDS011;3478;51.462;7.338;2024-03-25T19:46:32;4.20;;;2.40;;
6878;SDS011;3478;51.462;7.338;2024-03-25T19:51:35;8.40;;;2.83;;
6878;SDS011;3478;51.462;7.338;2024-03-25T19:56:36;8.20;;;2.73;;
6878;SDS011;3478;51.462;7.338;2024-03-25T20:01:37;5.13;;;2.57;;
6878;SDS011;3478;51.462;7.338;2024-03-25T20:06:39;4.37;;;3.00;;
6878;SDS011;3478;51.462;7.338;2024-03-25T20:11:40;6.73;;;2.67;;
6878;SDS011;3478;51.462;7.338;2024-03-25T20:16:41;4.50;;;2.17;;
6878;SDS011;3478;51.462;7.338;2024-03-25T20:21:43;4.23;;;2.17;;
6878;SDS011;3478;51.462;7.338;2024-03-25T20:26:44;8.40;;;2.70;;
6878;SDS011;3478;51.462;7.338;2024-03-25T20:31:45;2.77;;;2.20;;
6878;SDS011;3478;51.462;7.338;2024-03-25T20:36:48;6.10;;;1.80;;
6878;SDS011;3478;51.462;7.338;2024-03-25T20:41:49;5.90;;;2.33;;
6878;SDS011;3478;51.462;7.338;2024-03-25T20:46:50;5.83;;;3.23;;
6878;SDS011;3478;51.462;7.338;2024-03-25T20:51:52;3.57;;;2.00;;
6878;SDS011;3478;51.462;7.338;2024-03-25T20:56:53;3.47;;;2.07;;
6878;SDS011;3478;51.462;7.338;2024-03-25T21:01:54;2.80;;;1.40;;
6878;SDS011;3478;51.462;7.338;2024-03-25T21:06:57;3.63;;;1.87;;
6878;SDS011;3478;51.462;7.338;2024-03-25T21:11:58;3.00;;;1.80;;
6878;SDS011;3478;51.462;7.338;2024-03-25T21:16:59;8.60;;;2.47;;
6878;SDS011;3478;51.462;7.338;2024-03-25T21:22:02;6.57;;;2.23;;
6878;SDS011;3478;51.462;7.338;2024-03-25T21:27:03;4.03;;;1.87;;
6878;SDS011;3478;51.462;7.338;2024-03-25T21:32:04;3.87;;;1.70;;
6878;SDS011;3478;51.462;7.338;2024-03-25T21:37:07;4.67;;;2.10;;
6878;SDS011;3478;51.462;7.338;2024-03-25T21:42:08;3.93;;;2.27;;
6878;SDS011;3478;51.462;7.338;2024-03-25T21:47:09;4.20;;;1.27;;
6878;SDS011;3478;51.462;7.338;2024-03-25T21:52:12;3.90;;;2.13;;
6878;SDS011;3478;51.462;7.338;2024-03-25T21:57:13;1.90;;;1.13;;
6878;SDS011;3478;51.462;7.338;2024-03-25T22:02:14;7.80;;;2.73;;
6878;SDS011;3478;51.462;7.338;2024-03-25T22:07:16;5.73;;;2.13;;
6878;SDS011;3478;51.462;7.338;2024-03-25T22:12:17;4.83;;;1.73;;
6878;SDS011;3478;51.462;7.338;2024-03-25T22:17:18;3.67;;;1.80;;
6878;SDS011;3478;51.462;7.338;2024-03-25T22:22:21;7.80;;;2.57;;
6878;SDS011;3478;51.462;7.338;2024-03-25T22:27:22;4.47;;;2.20;;
6878;SDS011;3478;51.462;7.338;2024-03-25T22:32:23;8.13;;;3.17;;
6878;SDS011;3478;51.462;7.338;2024-03-25T22:37:26;7.40;;;2.40;;
6878;SDS011;3478;51.462;7.338;2024-03-25T22:42:27;6.03;;;2.47;;
6878;SDS011;3478;51.462;7.338;2024-03-25T22:47:28;6.47;;;2.87;;
6878;SDS011;3478;51.462;7.338;2024-03-25T22:52:31;3.57;;;2.20;;
6878;SDS011;3478;51.462;7.338;2024-03-25T22:57:32;4.30;;;2.93;;
6878;SDS011;3478;51.462;7.338;2024-03-25T23:02:33;3.73;;;2.30;;
6878;SDS011;3478;51.462;7.338;2024-03-25T23:07:35;10.00;;;2.37;;
6878;SDS011;3478;51.462;7.338;2024-03-25T23:12:36;5.90;;;2.50;;
6878;SDS011;3478;51.462;7.338;2024-03-25T23:17:37;5.77;;;1.97;;
6878;SDS011;3478;51.462;7.338;2024-03-25T23:22:40;11.50;;;2.43;;
6878;SDS011;3478;51.462;7.338;2024-03-25T23:27:41;3.97;;;1.93;;
6878;SDS011;3478;51.462;7.338;2024-03-25T23:32:42;9.83;;;2.57;;
6878;SDS011;3478;51.462;7.338;2024-03-25T23:37:44;4.13;;;1.90;;
6878;SDS011;3478;51.462;7.338;2024-03-25T23:42:45;4.80;;;2.27;;
6878;SDS011;3478;51.462;7.338;2024-03-25T23:47:48;4.70;;;2.53;;
6878;SDS011;3478;51.462;7.338;2024-03-25T23:52:50;7.00;;;1.83;;
6878;SDS011;3478;51.462;7.338;2024-03-25T23:57:51;11.17;;;2.53;;
